sensor_id;sensor_type;location;lat;lon;timestamp;pressure;altitude;pressure_sealevel;temperature;humidity
59831;BME280;45711;50.108;13.712;2023-07-08T00:01:52;98283.53;;;16.19;59.04
59831;BME280;45711;50.108;13.712;2023-07-08T00:04:18;98279.44;;;16.22;59.57
59831;BME280;45711;50.108;13.712;2023-07-08T00:06:43;98281.72;;;16.28;59.17
59831;BME280;45711;50.108;13.712;2023-07-08T00:09:10;98281.19;;;16.04;60.18
59831;BME280;45711;50.108;13.712;2023-07-08T00:11:38;98278.13;;;16.19;59.18
59831;BME280;45711;50.108;13.712;2023-07-08T00:14:04;98271.06;;;16.09;60.20
59831;BME280;45711;50.108;13.712;2023-07-08T00:16:29;98285.28;;;16.01;60.23
59831;BME280;45711;50.108;13.712;2023-07-08T00:18:55;98280.13;;;15.91;61.13
59831;BME280;45711;50.108;13.712;2023-07-08T00:21:21;98279.78;;;15.70;61.71
59831;BME280;45711;50.108;13.712;2023-07-08T00:23:47;98286.94;;;15.89;61.31
59831;BME280;45711;50.108;13.712;2023-07-08T00:26:17;98284.44;;;15.92;61.16
59831;BME280;45711;50.108;13.712;2023-07-08T00:28:45;98286.56;;;15.54;62.22
59831;BME280;45711;50.108;13.712;2023-07-08T00:31:10;98288.53;;;15.62;61.64
59831;BME280;45711;50.108;13.712;2023-07-08T00:33:36;98289.38;;;15.76;62.11
59831;BME280;45711;50.108;13.712;2023-07-08T00:36:07;98295.06;;;15.75;61.75
59831;BME280;45711;50.108;13.712;2023-07-08T00:38:34;98288.47;;;15.53;62.31
59831;BME280;45711;50.108;13.712;2023-07-08T00:41:06;98291.78;;;15.64;62.55
59831;BME280;45711;50.108;13.712;2023-07-08T00:43:39;98291.78;;;15.50;62.49
59831;BME280;45711;50.108;13.712;2023-07-08T00:46:16;98288.84;;;15.61;62.44
59831;BME280;45711;50.108;13.712;2023-07-08T00:48:44;98285.66;;;15.45;62.28
59831;BME280;45711;50.108;13.712;2023-07-08T00:51:11;98291.97;;;15.26;63.33
59831;BME280;45711;50.108;13.712;2023-07-08T00:53:38;98285.78;;;14.98;63.92
59831;BME280;45711;50.108;13.712;2023-07-08T00:56:07;98284.38;;;15.01;63.70
59831;BME280;45711;50.108;13.712;2023-07-08T00:58:42;98287.38;;;15.13;64.05
59831;BME280;45711;50.108;13.712;2023-07-08T01:01:12;98287.78;;;15.06;63.20
59831;BME280;45711;50.108;13.712;2023-07-08T01:03:44;98297.50;;;14.89;64.15
59831;BME280;45711;50.108;13.712;2023-07-08T01:06:11;98298.47;;;15.25;63.37
59831;BME280;45711;50.108;13.712;2023-07-08T01:08:39;98300.53;;;15.15;63.37
59831;BME280;45711;50.108;13.712;2023-07-08T01:11:05;98301.97;;;15.12;63.38
59831;BME280;45711;50.108;13.712;2023-07-08T01:13:34;98292.06;;;14.94;63.93
59831;BME280;45711;50.108;13.712;2023-07-08T01:16:01;98302.78;;;14.80;64.54
59831;BME280;45711;50.108;13.712;2023-07-08T01:18:28;98291.06;;;14.90;64.74
59831;BME280;45711;50.108;13.712;2023-07-08T01:20:54;98299.28;;;14.79;65.39
59831;BME280;45711;50.108;13.712;2023-07-08T01:23:22;98290.31;;;14.70;64.95
59831;BME280;45711;50.108;13.712;2023-07-08T01:25:48;98294.66;;;14.52;66.22
59831;BME280;45711;50.108;13.712;2023-07-08T01:28:14;98293.06;;;14.51;66.46
59831;BME280;45711;50.108;13.712;2023-07-08T01:30:41;98291.66;;;14.54;66.04
59831;BME280;45711;50.108;13.712;2023-07-08T01:33:17;98284.97;;;14.51;66.38
59831;BME280;45711;50.108;13.712;2023-07-08T01:35:47;98297.97;;;14.44;66.38
59831;BME280;45711;50.108;13.712;2023-07-08T01:38:16;98289.25;;;14.52;66.56
59831;BME280;45711;50.108;13.712;2023-07-08T01:40:52;98289.34;;;14.28;67.23
59831;BME280;45711;50.108;13.712;2023-07-08T01:43:21;98286.19;;;14.59;65.96
59831;BME280;45711;50.108;13.712;2023-07-08T01:45:48;98273.75;;;14.77;65.18
59831;BME280;45711;50.108;13.712;2023-07-08T01:48:20;98273.78;;;14.91;64.30
59831;BME280;45711;50.108;13.712;2023-07-08T01:50:50;98277.47;;;14.95;63.87
59831;BME280;45711;50.108;13.712;2023-07-08T01:53:20;98276.16;;;14.92;63.69
59831;BME280;45711;50.108;13.712;2023-07-08T01:55:46;98276.66;;;14.80;63.77
59831;BME280;45711;50.108;13.712;2023-07-08T01:58:16;98281.66;;;14.87;63.69
59831;BME280;45711;50.108;13.712;2023-07-08T02:00:41;98265.19;;;14.89;63.43
59831;BME280;45711;50.108;13.712;2023-07-08T02:03:08;98262.25;;;14.71;63.62
59831;BME280;45711;50.108;13.712;2023-07-08T02:05:35;98274.13;;;14.70;64.42
59831;BME280;45711;50.108;13.712;2023-07-08T02:08:00;98263.50;;;14.46;65.49
59831;BME280;45711;50.108;13.712;2023-07-08T02:10:26;98259.44;;;14.30;66.29
59831;BME280;45711;50.108;13.712;2023-07-08T02:12:55;98262.13;;;14.30;66.32
59831;BME280;45711;50.108;13.712;2023-07-08T02:15:23;98258.16;;;14.08;66.93
59831;BME280;45711;50.108;13.712;2023-07-08T02:17:49;98257.25;;;13.80;67.85
59831;BME280;45711;50.108;13.712;2023-07-08T02:20:15;98255.31;;;14.00;68.06
59831;BME280;45711;50.108;13.712;2023-07-08T02:22:41;98252.28;;;14.06;67.53
59831;BME280;45711;50.108;13.712;2023-07-08T02:25:07;98249.50;;;13.55;68.46
59831;BME280;45711;50.108;13.712;2023-07-08T02:27:34;98254.41;;;13.91;68.11
59831;BME280;45711;50.108;13.712;2023-07-08T02:30:00;98261.44;;;13.87;68.39
59831;BME280;45711;50.108;13.712;2023-07-08T02:32:27;98260.19;;;13.79;68.09
59831;BME280;45711;50.108;13.712;2023-07-08T02:35:01;98266.53;;;13.69;67.85
59831;BME280;45711;50.108;13.712;2023-07-08T02:37:26;98274.13;;;13.43;69.29
59831;BME280;45711;50.108;13.712;2023-07-08T02:39:52;98274.41;;;13.42;69.69
59831;BME280;45711;50.108;13.712;2023-07-08T02:42:17;98263.66;;;13.42;69.58
59831;BME280;45711;50.108;13.712;2023-07-08T02:44:43;98270.72;;;13.75;68.62
59831;BME280;45711;50.108;13.712;2023-07-08T02:47:11;98276.41;;;13.55;68.50
59831;BME280;45711;50.108;13.712;2023-07-08T02:49:38;98270.88;;;13.46;69.19
59831;BME280;45711;50.108;13.712;2023-07-08T02:52:04;98273.59;;;13.17;70.07
59831;BME280;45711;50.108;13.712;2023-07-08T02:54:29;98275.00;;;13.39;69.74
59831;BME280;45711;50.108;13.712;2023-07-08T02:56:55;98277.88;;;13.18;70.27
59831;BME280;45711;50.108;13.712;2023-07-08T02:59:21;98278.59;;;13.29;70.00
59831;BME280;45711;50.108;13.712;2023-07-08T03:01:46;98289.06;;;13.01;70.63
59831;BME280;45711;50.108;13.712;2023-07-08T03:04:13;98283.31;;;13.13;70.11
59831;BME280;45711;50.108;13.712;2023-07-08T03:06:40;98284.84;;;12.95;69.96
59831;BME280;45711;50.108;13.712;2023-07-08T03:09:06;98277.28;;;12.73;70.88
59831;BME280;45711;50.108;13.712;2023-07-08T03:11:36;98281.88;;;12.97;70.19
59831;BME280;45711;50.108;13.712;2023-07-08T03:14:04;98287.72;;;13.04;70.38
59831;BME280;45711;50.108;13.712;2023-07-08T03:16:30;98289.03;;;13.06;69.84
59831;BME280;45711;50.108;13.712;2023-07-08T03:18:56;98289.75;;;12.88;69.82
59831;BME280;45711;50.108;13.712;2023-07-08T03:21:22;98288.72;;;12.84;70.23
59831;BME280;45711;50.108;13.712;2023-07-08T03:23:52;98271.00;;;12.83;70.05
59831;BME280;45711;50.108;13.712;2023-07-08T03:26:19;98283.97;;;12.76;70.66
59831;BME280;45711;50.108;13.712;2023-07-08T03:28:46;98286.97;;;12.69;71.34
59831;BME280;45711;50.108;13.712;2023-07-08T03:31:12;98293.91;;;12.46;71.77
59831;BME280;45711;50.108;13.712;2023-07-08T03:33:37;98305.88;;;12.59;71.86
59831;BME280;45711;50.108;13.712;2023-07-08T03:36:04;98308.56;;;12.59;72.15
59831;BME280;45711;50.108;13.712;2023-07-08T03:38:30;98303.56;;;12.76;70.87
59831;BME280;45711;50.108;13.712;2023-07-08T03:40:57;98315.44;;;12.70;71.22
59831;BME280;45711;50.108;13.712;2023-07-08T03:43:25;98316.38;;;12.85;71.08
59831;BME280;45711;50.108;13.712;2023-07-08T03:45:51;98317.50;;;12.78;70.91
59831;BME280;45711;50.108;13.712;2023-07-08T03:48:19;98318.41;;;12.98;70.57
59831;BME280;45711;50.108;13.712;2023-07-08T03:50:44;98327.59;;;12.92;70.32
59831;BME280;45711;50.108;13.712;2023-07-08T03:53:10;98326.94;;;12.76;70.95
59831;BME280;45711;50.108;13.712;2023-07-08T03:55:36;98331.22;;;12.77;71.12
59831;BME280;45711;50.108;13.712;2023-07-08T03:58:03;98337.22;;;12.98;70.49
59831;BME280;45711;50.108;13.712;2023-07-08T04:00:29;98340.22;;;13.20;69.93
59831;BME280;45711;50.108;13.712;2023-07-08T04:02:54;98336.94;;;13.28;69.31
59831;BME280;45711;50.108;13.712;2023-07-08T04:05:22;98333.81;;;13.40;69.48
59831;BME280;45711;50.108;13.712;2023-07-08T04:07:48;98349.06;;;13.50;69.60
59831;BME280;45711;50.108;13.712;2023-07-08T04:10:14;98340.16;;;13.49;69.56
59831;BME280;45711;50.108;13.712;2023-07-08T04:12:40;98338.69;;;13.62;69.10
59831;BME280;45711;50.108;13.712;2023-07-08T04:15:09;98340.56;;;13.62;68.81
59831;BME280;45711;50.108;13.712;2023-07-08T04:17:37;98340.88;;;13.60;69.16
59831;BME280;45711;50.108;13.712;2023-07-08T04:20:08;98347.03;;;13.85;68.48
59831;BME280;45711;50.108;13.712;2023-07-08T04:22:36;98341.41;;;13.81;68.36
59831;BME280;45711;50.108;13.712;2023-07-08T04:25:01;98342.75;;;13.60;69.13
59831;BME280;45711;50.108;13.712;2023-07-08T04:27:29;98343.88;;;13.77;68.39
59831;BME280;45711;50.108;13.712;2023-07-08T04:29:55;98345.59;;;14.11;67.78
59831;BME280;45711;50.108;13.712;2023-07-08T04:32:22;98342.03;;;14.16;67.61
59831;BME280;45711;50.108;13.712;2023-07-08T04:34:50;98351.69;;;14.17;67.55
59831;BME280;45711;50.108;13.712;2023-07-08T04:37:16;98344.34;;;14.22;67.42
59831;BME280;45711;50.108;13.712;2023-07-08T04:39:41;98343.47;;;14.46;66.74
59831;BME280;45711;50.108;13.712;2023-07-08T04:42:07;98345.59;;;14.49;66.60
59831;BME280;45711;50.108;13.712;2023-07-08T04:44:32;98339.69;;;14.47;66.38
59831;BME280;45711;50.108;13.712;2023-07-08T04:46:58;98358.69;;;14.37;67.05
59831;BME280;45711;50.108;13.712;2023-07-08T04:49:25;98351.50;;;14.51;66.73
59831;BME280;45711;50.108;13.712;2023-07-08T04:51:58;98344.13;;;14.56;66.08
59831;BME280;45711;50.108;13.712;2023-07-08T04:54:25;98348.06;;;14.64;66.09
59831;BME280;45711;50.108;13.712;2023-07-08T04:56:50;98351.31;;;14.61;66.01
59831;BME280;45711;50.108;13.712;2023-07-08T04:59:20;98355.75;;;14.71;66.11
59831;BME280;45711;50.108;13.712;2023-07-08T05:01:46;98359.66;;;15.11;65.07
59831;BME280;45711;50.108;13.712;2023-07-08T05:04:13;98352.28;;;15.17;64.97
59831;BME280;45711;50.108;13.712;2023-07-08T05:06:41;98354.97;;;15.17;64.53
59831;BME280;45711;50.108;13.712;2023-07-08T05:09:07;98350.91;;;15.47;63.44
59831;BME280;45711;50.108;13.712;2023-07-08T05:11:33;98348.69;;;15.49;62.72
59831;BME280;45711;50.108;13.712;2023-07-08T05:13:59;98353.91;;;15.59;62.26
59831;BME280;45711;50.108;13.712;2023-07-08T05:16:25;98358.09;;;15.79;61.94
59831;BME280;45711;50.108;13.712;2023-07-08T05:18:50;98360.09;;;15.87;61.63
59831;BME280;45711;50.108;13.712;2023-07-08T05:21:17;98366.69;;;15.95;61.49
59831;BME280;45711;50.108;13.712;2023-07-08T05:23:45;98369.88;;;15.97;60.98
59831;BME280;45711;50.108;13.712;2023-07-08T05:26:11;98359.13;;;16.19;60.58
59831;BME280;45711;50.108;13.712;2023-07-08T05:28:36;98374.34;;;16.29;60.93
59831;BME280;45711;50.108;13.712;2023-07-08T05:31:04;98370.34;;;16.71;59.65
59831;BME280;45711;50.108;13.712;2023-07-08T05:33:30;98370.00;;;17.09;58.88
59831;BME280;45711;50.108;13.712;2023-07-08T05:35:57;98372.47;;;16.97;58.51
59831;BME280;45711;50.108;13.712;2023-07-08T05:38:23;98376.47;;;17.30;58.37
59831;BME280;45711;50.108;13.712;2023-07-08T05:41:04;98376.09;;;17.86;55.97
59831;BME280;45711;50.108;13.712;2023-07-08T05:43:30;98374.03;;;18.00;55.57
59831;BME280;45711;50.108;13.712;2023-07-08T05:45:57;98375.78;;;17.96;56.09
59831;BME280;45711;50.108;13.712;2023-07-08T05:48:23;98377.56;;;18.09;55.90
59831;BME280;45711;50.108;13.712;2023-07-08T05:50:49;98365.16;;;18.25;55.62
59831;BME280;45711;50.108;13.712;2023-07-08T05:53:18;98367.25;;;18.28;55.26
59831;BME280;45711;50.108;13.712;2023-07-08T05:55:44;98368.50;;;18.40;55.23
59831;BME280;45711;50.108;13.712;2023-07-08T05:58:11;98365.00;;;18.56;54.75
59831;BME280;45711;50.108;13.712;2023-07-08T06:00:40;98366.75;;;18.61;54.58
59831;BME280;45711;50.108;13.712;2023-07-08T06:03:06;98372.97;;;18.36;55.70
59831;BME280;45711;50.108;13.712;2023-07-08T06:05:31;98370.88;;;18.67;55.30
59831;BME280;45711;50.108;13.712;2023-07-08T06:07:58;98382.69;;;18.28;56.39
59831;BME280;45711;50.108;13.712;2023-07-08T06:10:24;98372.31;;;18.13;57.09
59831;BME280;45711;50.108;13.712;2023-07-08T06:12:50;98380.47;;;18.39;56.85
59831;BME280;45711;50.108;13.712;2023-07-08T06:15:17;98373.00;;;18.70;55.91
59831;BME280;45711;50.108;13.712;2023-07-08T06:17:42;98363.72;;;18.63;55.71
59831;BME280;45711;50.108;13.712;2023-07-08T06:20:08;98365.03;;;18.74;55.46
59831;BME280;45711;50.108;13.712;2023-07-08T06:22:34;98353.53;;;18.94;54.85
59831;BME280;45711;50.108;13.712;2023-07-08T06:24:59;98359.19;;;19.19;53.78
59831;BME280;45711;50.108;13.712;2023-07-08T06:27:25;98359.28;;;19.40;53.85
59831;BME280;45711;50.108;13.712;2023-07-08T06:29:50;98357.03;;;18.95;54.66
59831;BME280;45711;50.108;13.712;2023-07-08T06:32:17;98357.00;;;19.03;54.70
59831;BME280;45711;50.108;13.712;2023-07-08T06:34:43;98358.88;;;19.20;54.06
59831;BME280;45711;50.108;13.712;2023-07-08T06:37:08;98354.09;;;19.17;53.39
59831;BME280;45711;50.108;13.712;2023-07-08T06:39:34;98365.66;;;19.44;53.32
59831;BME280;45711;50.108;13.712;2023-07-08T06:42:00;98362.09;;;19.61;52.90
59831;BME280;45711;50.108;13.712;2023-07-08T06:44:25;98352.63;;;19.67;52.60
59831;BME280;45711;50.108;13.712;2023-07-08T06:46:51;98346.41;;;19.66;52.34
59831;BME280;45711;50.108;13.712;2023-07-08T06:49:18;98350.22;;;19.74;52.40
59831;BME280;45711;50.108;13.712;2023-07-08T06:51:44;98340.50;;;19.94;52.44
59831;BME280;45711;50.108;13.712;2023-07-08T06:54:10;98350.25;;;19.95;51.92
59831;BME280;45711;50.108;13.712;2023-07-08T06:56:39;98353.63;;;19.92;52.12
59831;BME280;45711;50.108;13.712;2023-07-08T06:59:05;98353.63;;;19.92;51.74
59831;BME280;45711;50.108;13.712;2023-07-08T07:01:31;98347.16;;;20.05;51.49
59831;BME280;45711;50.108;13.712;2023-07-08T07:03:56;98351.94;;;20.29;50.97
59831;BME280;45711;50.108;13.712;2023-07-08T07:06:23;98354.06;;;20.44;50.47
59831;BME280;45711;50.108;13.712;2023-07-08T07:08:49;98357.53;;;20.53;49.47
59831;BME280;45711;50.108;13.712;2023-07-08T07:11:15;98355.44;;;20.71;49.28
59831;BME280;45711;50.108;13.712;2023-07-08T07:13:40;98351.91;;;20.92;49.08
59831;BME280;45711;50.108;13.712;2023-07-08T07:16:06;98350.78;;;21.87;47.04
59831;BME280;45711;50.108;13.712;2023-07-08T07:18:31;98352.91;;;22.87;45.05
59831;BME280;45711;50.108;13.712;2023-07-08T07:20:58;98349.13;;;24.18;41.67
59831;BME280;45711;50.108;13.712;2023-07-08T07:23:25;98353.13;;;24.78;39.61
59831;BME280;45711;50.108;13.712;2023-07-08T07:25:51;98345.91;;;24.90;39.60
59831;BME280;45711;50.108;13.712;2023-07-08T07:28:17;98343.00;;;24.24;40.60
59831;BME280;45711;50.108;13.712;2023-07-08T07:30:43;98346.94;;;25.70;39.00
59831;BME280;45711;50.108;13.712;2023-07-08T07:33:09;98343.53;;;24.30;40.53
59831;BME280;45711;50.108;13.712;2023-07-08T07:35:35;98336.31;;;24.57;41.45
59831;BME280;45711;50.108;13.712;2023-07-08T07:38:01;98342.53;;;24.03;41.29
59831;BME280;45711;50.108;13.712;2023-07-08T07:40:28;98348.91;;;25.96;37.53
59831;BME280;45711;50.108;13.712;2023-07-08T07:42:53;98341.53;;;25.27;38.99
59831;BME280;45711;50.108;13.712;2023-07-08T07:45:19;98354.47;;;25.99;37.38
59831;BME280;45711;50.108;13.712;2023-07-08T07:47:47;98339.81;;;24.57;40.20
59831;BME280;45711;50.108;13.712;2023-07-08T07:50:13;98331.88;;;22.59;44.82
59831;BME280;45711;50.108;13.712;2023-07-08T07:52:40;98349.41;;;22.86;45.04
59831;BME280;45711;50.108;13.712;2023-07-08T07:55:07;98334.59;;;24.33;41.63
59831;BME280;45711;50.108;13.712;2023-07-08T07:57:34;98335.88;;;22.21;46.11
59831;BME280;45711;50.108;13.712;2023-07-08T08:00:00;98325.03;;;22.37;45.96
59831;BME280;45711;50.108;13.712;2023-07-08T08:02:25;98336.25;;;23.20;44.32
59831;BME280;45711;50.108;13.712;2023-07-08T08:04:51;98336.13;;;25.08;39.43
59831;BME280;45711;50.108;13.712;2023-07-08T08:07:17;98342.28;;;25.47;37.77
59831;BME280;45711;50.108;13.712;2023-07-08T08:09:42;98335.34;;;24.49;38.23
59831;BME280;45711;50.108;13.712;2023-07-08T08:12:10;98333.53;;;26.81;33.25
59831;BME280;45711;50.108;13.712;2023-07-08T08:14:37;98330.25;;;27.47;33.17
59831;BME280;45711;50.108;13.712;2023-07-08T08:17:06;98322.81;;;23.94;40.52
59831;BME280;45711;50.108;13.712;2023-07-08T08:19:31;98319.31;;;22.98;44.04
59831;BME280;45711;50.108;13.712;2023-07-08T08:21:58;98323.16;;;24.08;40.28
59831;BME280;45711;50.108;13.712;2023-07-08T08:24:23;98328.66;;;26.04;35.38
59831;BME280;45711;50.108;13.712;2023-07-08T08:26:49;98330.88;;;26.25;36.92
59831;BME280;45711;50.108;13.712;2023-07-08T08:29:15;98327.34;;;22.91;44.35
59831;BME280;45711;50.108;13.712;2023-07-08T08:31:43;98321.38;;;23.17;42.94
59831;BME280;45711;50.108;13.712;2023-07-08T08:34:08;98318.38;;;22.22;46.72
59831;BME280;45711;50.108;13.712;2023-07-08T08:36:36;98319.94;;;23.87;41.66
59831;BME280;45711;50.108;13.712;2023-07-08T08:39:03;98313.94;;;22.58;45.86
59831;BME280;45711;50.108;13.712;2023-07-08T08:41:30;98323.00;;;24.55;39.91
59831;BME280;45711;50.108;13.712;2023-07-08T08:44:00;98314.53;;;25.26;38.74
59831;BME280;45711;50.108;13.712;2023-07-08T08:46:32;98319.00;;;26.77;34.08
59831;BME280;45711;50.108;13.712;2023-07-08T08:49:05;98324.81;;;23.14;43.75
59831;BME280;45711;50.108;13.712;2023-07-08T08:51:36;98318.47;;;24.08;42.66
59831;BME280;45711;50.108;13.712;2023-07-08T08:54:06;98318.28;;;23.82;42.74
59831;BME280;45711;50.108;13.712;2023-07-08T08:56:38;98319.31;;;25.32;38.87
59831;BME280;45711;50.108;13.712;2023-07-08T08:59:14;98308.75;;;24.11;41.90
59831;BME280;45711;50.108;13.712;2023-07-08T09:01:44;98316.78;;;22.33;47.13
59831;BME280;45711;50.108;13.712;2023-07-08T09:04:17;98313.19;;;24.54;40.52
59831;BME280;45711;50.108;13.712;2023-07-08T09:06:45;98317.84;;;25.88;34.89
59831;BME280;45711;50.108;13.712;2023-07-08T09:09:18;98311.53;;;25.84;34.87
59831;BME280;45711;50.108;13.712;2023-07-08T09:11:50;98309.53;;;24.47;39.82
59831;BME280;45711;50.108;13.712;2023-07-08T09:14:29;98314.34;;;24.53;39.74
59831;BME280;45711;50.108;13.712;2023-07-08T09:17:04;98315.34;;;23.91;40.89
59831;BME280;45711;50.108;13.712;2023-07-08T09:19:40;98320.88;;;26.70;33.10
59831;BME280;45711;50.108;13.712;2023-07-08T09:22:14;98318.16;;;25.33;37.90
59831;BME280;45711;50.108;13.712;2023-07-08T09:24:43;98301.09;;;27.79;31.32
59831;BME280;45711;50.108;13.712;2023-07-08T09:27:11;98302.59;;;28.36;29.95
59831;BME280;45711;50.108;13.712;2023-07-08T09:29:37;98301.59;;;28.97;28.00
59831;BME280;45711;50.108;13.712;2023-07-08T09:32:14;98300.34;;;26.56;34.86
59831;BME280;45711;50.108;13.712;2023-07-08T09:34:44;98304.59;;;27.76;30.24
59831;BME280;45711;50.108;13.712;2023-07-08T09:37:28;98298.31;;;26.87;34.65
59831;BME280;45711;50.108;13.712;2023-07-08T09:39:56;98293.00;;;27.49;30.51
59831;BME280;45711;50.108;13.712;2023-07-08T09:42:25;98294.69;;;27.13;31.38
59831;BME280;45711;50.108;13.712;2023-07-08T09:44:55;98295.25;;;25.72;33.88
59831;BME280;45711;50.108;13.712;2023-07-08T09:47:23;98298.09;;;26.66;31.17
59831;BME280;45711;50.108;13.712;2023-07-08T09:49:53;98286.81;;;23.56;39.25
59831;BME280;45711;50.108;13.712;2023-07-08T09:52:19;98292.13;;;24.78;37.60
59831;BME280;45711;50.108;13.712;2023-07-08T09:54:45;98297.72;;;25.27;37.06
59831;BME280;45711;50.108;13.712;2023-07-08T09:57:21;98298.50;;;26.04;34.70
59831;BME280;45711;50.108;13.712;2023-07-08T09:59:55;98300.34;;;26.56;31.96
59831;BME280;45711;50.108;13.712;2023-07-08T10:02:28;98288.19;;;23.31;43.09
59831;BME280;45711;50.108;13.712;2023-07-08T10:04:57;98285.41;;;25.41;35.31
59831;BME280;45711;50.108;13.712;2023-07-08T10:07:28;98284.50;;;23.90;41.51
59831;BME280;45711;50.108;13.712;2023-07-08T10:09:57;98276.34;;;23.94;38.66
59831;BME280;45711;50.108;13.712;2023-07-08T10:12:23;98287.09;;;26.32;35.88
59831;BME280;45711;50.108;13.712;2023-07-08T10:14:52;98295.41;;;25.79;33.31
59831;BME280;45711;50.108;13.712;2023-07-08T10:17:20;98282.53;;;27.69;28.70
59831;BME280;45711;50.108;13.712;2023-07-08T10:19:46;98289.63;;;26.81;32.98
59831;BME280;45711;50.108;13.712;2023-07-08T10:22:27;98293.97;;;26.86;31.76
59831;BME280;45711;50.108;13.712;2023-07-08T10:25:06;98281.50;;;25.68;36.52
59831;BME280;45711;50.108;13.712;2023-07-08T10:27:39;98280.03;;;23.82;41.34
59831;BME280;45711;50.108;13.712;2023-07-08T10:30:19;98275.41;;;23.51;41.34
59831;BME280;45711;50.108;13.712;2023-07-08T10:32:58;98272.41;;;23.24;43.98
59831;BME280;45711;50.108;13.712;2023-07-08T10:35:32;98270.81;;;22.64;46.23
59831;BME280;45711;50.108;13.712;2023-07-08T10:38:14;98271.47;;;25.03;38.42
59831;BME280;45711;50.108;13.712;2023-07-08T10:40:48;98268.53;;;24.70;39.48
59831;BME280;45711;50.108;13.712;2023-07-08T10:43:36;98267.38;;;23.42;43.01
59831;BME280;45711;50.108;13.712;2023-07-08T10:46:20;98274.00;;;22.66;45.48
59831;BME280;45711;50.108;13.712;2023-07-08T10:49:00;98262.75;;;23.62;40.02
59831;BME280;45711;50.108;13.712;2023-07-08T10:51:38;98256.78;;;22.77;45.03
59831;BME280;45711;50.108;13.712;2023-07-08T10:54:26;98255.19;;;22.32;47.04
59831;BME280;45711;50.108;13.712;2023-07-08T10:57:06;98259.94;;;22.36;47.31
59831;BME280;45711;50.108;13.712;2023-07-08T10:59:44;98256.75;;;25.88;36.59
59831;BME280;45711;50.108;13.712;2023-07-08T11:02:31;98268.84;;;25.83;32.79
59831;BME280;45711;50.108;13.712;2023-07-08T11:05:11;98253.88;;;22.70;45.88
59831;BME280;45711;50.108;13.712;2023-07-08T11:07:44;98250.13;;;24.28;37.99
59831;BME280;45711;50.108;13.712;2023-07-08T11:10:16;98245.63;;;23.14;44.04
59831;BME280;45711;50.108;13.712;2023-07-08T11:12:47;98244.53;;;22.71;45.21
59831;BME280;45711;50.108;13.712;2023-07-08T11:15:18;98247.34;;;27.30;32.32
59831;BME280;45711;50.108;13.712;2023-07-08T11:17:51;98233.97;;;27.88;28.00
59831;BME280;45711;50.108;13.712;2023-07-08T11:20:21;98238.78;;;28.12;28.39
59831;BME280;45711;50.108;13.712;2023-07-08T11:22:51;98234.09;;;26.58;35.31
59831;BME280;45711;50.108;13.712;2023-07-08T11:25:21;98223.56;;;25.40;37.31
59831;BME280;45711;50.108;13.712;2023-07-08T11:27:51;98242.38;;;25.98;31.88
59831;BME280;45711;50.108;13.712;2023-07-08T11:30:22;98238.38;;;26.52;32.63
59831;BME280;45711;50.108;13.712;2023-07-08T11:32:57;98221.53;;;26.23;33.43
59831;BME280;45711;50.108;13.712;2023-07-08T11:35:29;98235.25;;;28.08;25.24
59831;BME280;45711;50.108;13.712;2023-07-08T11:37:57;98229.66;;;25.06;37.88
59831;BME280;45711;50.108;13.712;2023-07-08T11:40:24;98220.94;;;27.19;28.65
59831;BME280;45711;50.108;13.712;2023-07-08T11:42:51;98218.38;;;23.85;41.18
59831;BME280;45711;50.108;13.712;2023-07-08T11:45:25;98218.97;;;24.13;36.49
59831;BME280;45711;50.108;13.712;2023-07-08T11:47:52;98214.03;;;24.38;40.76
59831;BME280;45711;50.108;13.712;2023-07-08T11:50:20;98215.94;;;26.13;32.70
59831;BME280;45711;50.108;13.712;2023-07-08T11:52:52;98208.78;;;27.78;26.39
59831;BME280;45711;50.108;13.712;2023-07-08T11:55:22;98210.59;;;27.60;28.30
59831;BME280;45711;50.108;13.712;2023-07-08T11:57:54;98212.16;;;27.58;28.56
59831;BME280;45711;50.108;13.712;2023-07-08T12:00:24;98215.44;;;24.74;39.52
59831;BME280;45711;50.108;13.712;2023-07-08T12:02:54;98217.56;;;27.40;30.42
59831;BME280;45711;50.108;13.712;2023-07-08T12:05:33;98208.34;;;27.73;28.93
59831;BME280;45711;50.108;13.712;2023-07-08T12:08:00;98214.81;;;26.92;28.65
59831;BME280;45711;50.108;13.712;2023-07-08T12:10:33;98209.47;;;28.52;23.49
59831;BME280;45711;50.108;13.712;2023-07-08T12:13:02;98207.78;;;26.53;32.69
59831;BME280;45711;50.108;13.712;2023-07-08T12:15:30;98192.88;;;23.26;43.37
59831;BME280;45711;50.108;13.712;2023-07-08T12:17:59;98186.59;;;22.90;44.88
59831;BME280;45711;50.108;13.712;2023-07-08T12:20:28;98190.06;;;22.59;42.88
59831;BME280;45711;50.108;13.712;2023-07-08T12:22:54;98187.25;;;22.71;45.52
59831;BME280;45711;50.108;13.712;2023-07-08T12:25:22;98193.06;;;25.41;37.43
59831;BME280;45711;50.108;13.712;2023-07-08T12:27:49;98185.44;;;26.55;32.16
59831;BME280;45711;50.108;13.712;2023-07-08T12:30:16;98190.00;;;26.06;30.71
59831;BME280;45711;50.108;13.712;2023-07-08T12:32:43;98184.81;;;24.03;41.41
59831;BME280;45711;50.108;13.712;2023-07-08T12:35:19;98180.38;;;25.86;30.41
59831;BME280;45711;50.108;13.712;2023-07-08T12:37:46;98189.72;;;24.79;39.73
59831;BME280;45711;50.108;13.712;2023-07-08T12:40:13;98193.13;;;24.49;36.10
59831;BME280;45711;50.108;13.712;2023-07-08T12:42:39;98183.84;;;24.35;38.87
59831;BME280;45711;50.108;13.712;2023-07-08T12:45:13;98189.44;;;24.42;40.51
59831;BME280;45711;50.108;13.712;2023-07-08T12:47:40;98188.16;;;25.54;37.14
59831;BME280;45711;50.108;13.712;2023-07-08T12:50:08;98180.72;;;26.52;32.04
59831;BME280;45711;50.108;13.712;2023-07-08T12:52:35;98195.84;;;25.45;36.87
59831;BME280;45711;50.108;13.712;2023-07-08T12:55:00;98177.84;;;23.51;39.94
59831;BME280;45711;50.108;13.712;2023-07-08T12:57:26;98181.44;;;22.89;45.12